sensor_id;sensor_type;location;lat;lon;timestamp;pressure;altitude;pressure_sealevel;temperature;humidity
19447;BME280;9862;49.462;11.054;2022-10-03T00:00:40;98262.91;;;13.43;100.00
19447;BME280;9862;49.462;11.054;2022-10-03T00:03:20;98274.84;;;13.40;100.00
19447;BME280;9862;49.462;11.054;2022-10-03T00:05:58;98280.84;;;13.36;100.00
19447;BME280;9862;49.462;11.054;2022-10-03T00:08:42;98276.09;;;13.38;100.00
19447;BME280;9862;49.462;11.054;2022-10-03T00:11:24;98287.69;;;13.32;100.00
19447;BME280;9862;49.462;11.054;2022-10-03T00:13:56;98293.84;;;13.32;100.00
19447;BME280;9862;49.462;11.054;2022-10-03T00:16:33;98293.91;;;13.26;100.00
19447;BME280;9862;49.462;11.054;2022-10-03T00:19:08;98297.84;;;13.23;100.00
19447;BME280;9862;49.462;11.054;2022-10-03T00:21:52;98290.19;;;13.27;100.00
19447;BME280;9862;49.462;11.054;2022-10-03T00:24:40;98281.09;;;13.34;100.00
19447;BME280;9862;49.462;11.054;2022-10-03T00:27:16;98271.78;;;13.37;100.00
19447;BME280;9862;49.462;11.054;2022-10-03T00:29:53;98267.84;;;13.39;100.00
19447;BME280;9862;49.462;11.054;2022-10-03T00:32:30;98274.03;;;13.40;100.00
19447;BME280;9862;49.462;11.054;2022-10-03T00:35:09;98278.31;;;13.41;100.00
19447;BME280;9862;49.462;11.054;2022-10-03T00:37:43;98283.03;;;13.45;100.00
19447;BME280;9862;49.462;11.054;2022-10-03T00:40:44;98299.13;;;13.39;100.00
19447;BME280;9862;49.462;11.054;2022-10-03T00:43:47;98316.06;;;13.33;100.00
19447;BME280;9862;49.462;11.054;2022-10-03T00:46:41;98325.97;;;13.26;100.00
19447;BME280;9862;49.462;11.054;2022-10-03T00:49:46;98327.25;;;13.23;100.00
19447;BME280;9862;49.462;11.054;2022-10-03T00:52:28;98330.06;;;13.28;100.00
19447;BME280;9862;49.462;11.054;2022-10-03T00:55:10;98341.84;;;13.21;100.00
19447;BME280;9862;49.462;11.054;2022-10-03T00:57:56;98339.16;;;13.21;100.00
19447;BME280;9862;49.462;11.054;2022-10-03T01:00:26;98340.78;;;13.22;100.00
19447;BME280;9862;49.462;11.054;2022-10-03T01:03:07;98336.91;;;13.17;100.00
19447;BME280;9862;49.462;11.054;2022-10-03T01:05:46;98339.78;;;13.23;100.00
19447;BME280;9862;49.462;11.054;2022-10-03T01:08:32;98341.19;;;13.25;100.00
19447;BME280;9862;49.462;11.054;2022-10-03T01:11:14;98342.84;;;13.26;100.00
19447;BME280;9862;49.462;11.054;2022-10-03T01:13:54;98353.75;;;13.25;100.00
19447;BME280;9862;49.462;11.054;2022-10-03T01:16:33;98355.59;;;13.24;100.00
19447;BME280;9862;49.462;11.054;2022-10-03T01:19:16;98354.78;;;13.24;100.00
19447;BME280;9862;49.462;11.054;2022-10-03T01:22:03;98348.53;;;13.30;100.00
19447;BME280;9862;49.462;11.054;2022-10-03T01:24:49;98362.72;;;13.30;100.00
19447;BME280;9862;49.462;11.054;2022-10-03T01:27:25;98355.97;;;13.28;100.00
19447;BME280;9862;49.462;11.054;2022-10-03T01:30:01;98365.81;;;13.34;100.00
19447;BME280;9862;49.462;11.054;2022-10-03T01:32:51;98362.09;;;13.35;100.00
19447;BME280;9862;49.462;11.054;2022-10-03T01:35:27;98377.94;;;13.30;100.00
19447;BME280;9862;49.462;11.054;2022-10-03T01:38:06;98385.75;;;13.31;100.00
19447;BME280;9862;49.462;11.054;2022-10-03T01:40:37;98404.94;;;13.22;100.00
19447;BME280;9862;49.462;11.054;2022-10-03T01:43:12;98394.06;;;13.23;100.00
19447;BME280;9862;49.462;11.054;2022-10-03T01:45:54;98400.78;;;13.32;100.00
19447;BME280;9862;49.462;11.054;2022-10-03T01:48:30;98412.69;;;13.30;100.00
19447;BME280;9862;49.462;11.054;2022-10-03T01:51:03;98417.28;;;13.23;100.00
19447;BME280;9862;49.462;11.054;2022-10-03T01:53:40;98423.06;;;13.20;100.00
19447;BME280;9862;49.462;11.054;2022-10-03T01:56:17;98426.75;;;13.12;100.00
19447;BME280;9862;49.462;11.054;2022-10-03T01:58:52;98414.88;;;13.08;100.00
19447;BME280;9862;49.462;11.054;2022-10-03T02:01:33;98401.75;;;13.06;100.00
19447;BME280;9862;49.462;11.054;2022-10-03T02:04:05;98410.53;;;13.13;100.00
19447;BME280;9862;49.462;11.054;2022-10-03T02:06:46;98401.63;;;13.26;100.00
19447;BME280;9862;49.462;11.054;2022-10-03T02:09:24;98422.00;;;13.21;100.00
19447;BME280;9862;49.462;11.054;2022-10-03T02:12:10;98432.53;;;13.09;100.00
19447;BME280;9862;49.462;11.054;2022-10-03T02:14:47;98430.69;;;13.09;100.00
19447;BME280;9862;49.462;11.054;2022-10-03T02:17:26;98432.53;;;13.09;100.00
19447;BME280;9862;49.462;11.054;2022-10-03T02:20:04;98436.69;;;13.05;100.00
19447;BME280;9862;49.462;11.054;2022-10-03T02:22:37;98440.22;;;12.92;100.00
19447;BME280;9862;49.462;11.054;2022-10-03T02:25:17;98426.88;;;12.92;100.00
19447;BME280;9862;49.462;11.054;2022-10-03T02:28:14;98430.81;;;12.83;100.00
19447;BME280;9862;49.462;11.054;2022-10-03T02:31:01;98418.72;;;12.80;100.00
19447;BME280;9862;49.462;11.054;2022-10-03T02:40:24;98428.50;;;12.93;100.00
19447;BME280;9862;49.462;11.054;2022-10-03T02:52:53;98469.81;;;12.97;100.00
19447;BME280;9862;49.462;11.054;2022-10-03T02:55:53;98487.28;;;12.93;100.00
19447;BME280;9862;49.462;11.054;2022-10-03T02:58:54;98497.59;;;12.89;100.00
19447;BME280;9862;49.462;11.054;2022-10-03T03:01:49;98495.94;;;12.88;100.00
19447;BME280;9862;49.462;11.054;2022-10-03T03:04:58;98499.28;;;12.77;100.00
19447;BME280;9862;49.462;11.054;2022-10-03T03:07:36;98498.88;;;12.74;100.00
19447;BME280;9862;49.462;11.054;2022-10-03T03:10:33;98490.66;;;12.75;100.00
19447;BME280;9862;49.462;11.054;2022-10-03T03:13:34;98501.53;;;12.74;100.00
19447;BME280;9862;49.462;11.054;2022-10-03T03:16:31;98496.78;;;12.82;100.00
19447;BME280;9862;49.462;11.054;2022-10-03T03:22:10;98496.03;;;12.69;100.00
19447;BME280;9862;49.462;11.054;2022-10-03T03:24:53;98499.31;;;12.64;100.00
19447;BME280;9862;49.462;11.054;2022-10-03T03:27:42;98490.69;;;12.69;100.00
19447;BME280;9862;49.462;11.054;2022-10-03T03:30:17;98507.28;;;12.84;100.00
19447;BME280;9862;49.462;11.054;2022-10-03T03:32:56;98515.75;;;12.74;100.00
19447;BME280;9862;49.462;11.054;2022-10-03T03:35:38;98512.47;;;12.66;100.00
19447;BME280;9862;49.462;11.054;2022-10-03T03:38:17;98510.84;;;12.65;100.00
19447;BME280;9862;49.462;11.054;2022-10-03T03:40:55;98520.72;;;12.57;100.00
19447;BME280;9862;49.462;11.054;2022-10-03T03:43:48;98517.44;;;12.42;100.00
19447;BME280;9862;49.462;11.054;2022-10-03T03:46:28;98512.09;;;12.55;100.00
19447;BME280;9862;49.462;11.054;2022-10-03T03:52:13;98500.81;;;12.40;100.00
19447;BME280;9862;49.462;11.054;2022-10-03T03:58:05;98490.13;;;12.40;100.00
19447;BME280;9862;49.462;11.054;2022-10-03T04:00:47;98504.53;;;12.39;100.00
19447;BME280;9862;49.462;11.054;2022-10-03T04:03:31;98490.97;;;12.41;100.00
19447;BME280;9862;49.462;11.054;2022-10-03T04:06:16;98482.56;;;12.37;100.00
19447;BME280;9862;49.462;11.054;2022-10-03T04:09:00;98478.25;;;12.29;100.00
19447;BME280;9862;49.462;11.054;2022-10-03T04:11:41;98479.69;;;12.32;100.00
19447;BME280;9862;49.462;11.054;2022-10-03T04:14:28;98472.91;;;12.36;100.00
19447;BME280;9862;49.462;11.054;2022-10-03T04:17:14;98467.31;;;12.44;100.00
19447;BME280;9862;49.462;11.054;2022-10-03T04:20:12;98475.56;;;12.43;100.00
19447;BME280;9862;49.462;11.054;2022-10-03T04:22:59;98475.16;;;12.46;100.00
19447;BME280;9862;49.462;11.054;2022-10-03T04:25:52;98484.59;;;12.42;100.00
19447;BME280;9862;49.462;11.054;2022-10-03T04:28:43;98488.50;;;12.39;100.00
19447;BME280;9862;49.462;11.054;2022-10-03T04:31:24;98477.81;;;12.39;100.00
19447;BME280;9862;49.462;11.054;2022-10-03T04:34:06;98472.66;;;12.44;100.00
19447;BME280;9862;49.462;11.054;2022-10-03T04:37:04;98462.38;;;12.54;100.00
19447;BME280;9862;49.462;11.054;2022-10-03T04:39:39;98473.44;;;12.65;100.00
19447;BME280;9862;49.462;11.054;2022-10-03T04:42:15;98466.00;;;12.73;100.00
19447;BME280;9862;49.462;11.054;2022-10-03T04:45:08;98472.13;;;12.80;100.00
19447;BME280;9862;49.462;11.054;2022-10-03T04:47:42;98483.66;;;12.81;100.00
19447;BME280;9862;49.462;11.054;2022-10-03T04:50:23;98500.09;;;12.78;100.00
19447;BME280;9862;49.462;11.054;2022-10-03T04:52:58;98517.75;;;12.79;100.00
19447;BME280;9862;49.462;11.054;2022-10-03T04:55:39;98529.69;;;12.70;100.00
19447;BME280;9862;49.462;11.054;2022-10-03T04:58:20;98537.13;;;12.68;100.00
19447;BME280;9862;49.462;11.054;2022-10-03T05:00:58;98541.22;;;12.70;100.00
19447;BME280;9862;49.462;11.054;2022-10-03T05:03:39;98542.84;;;12.78;100.00
19447;BME280;9862;49.462;11.054;2022-10-03T05:06:21;98540.78;;;12.80;100.00
19447;BME280;9862;49.462;11.054;2022-10-03T05:08:56;98547.94;;;12.86;100.00
19447;BME280;9862;49.462;11.054;2022-10-03T05:11:36;98543.22;;;12.88;100.00
19447;BME280;9862;49.462;11.054;2022-10-03T05:14:09;98549.75;;;12.92;100.00
19447;BME280;9862;49.462;11.054;2022-10-03T05:16:41;98548.13;;;12.91;100.00
19447;BME280;9862;49.462;11.054;2022-10-03T05:19:40;98550.78;;;12.91;100.00
19447;BME280;9862;49.462;11.054;2022-10-03T05:22:19;98561.31;;;12.86;100.00
19447;BME280;9862;49.462;11.054;2022-10-03T05:24:55;98571.78;;;12.81;100.00
19447;BME280;9862;49.462;11.054;2022-10-03T05:27:28;98574.66;;;12.79;100.00
19447;BME280;9862;49.462;11.054;2022-10-03T05:30:03;98585.56;;;12.78;100.00
19447;BME280;9862;49.462;11.054;2022-10-03T05:32:38;98588.41;;;12.83;100.00
19447;BME280;9862;49.462;11.054;2022-10-03T05:35:21;98593.16;;;12.87;100.00
19447;BME280;9862;49.462;11.054;2022-10-03T05:41:00;98603.19;;;12.92;100.00
19447;BME280;9862;49.462;11.054;2022-10-03T05:43:43;98614.50;;;12.94;100.00
19447;BME280;9862;49.462;11.054;2022-10-03T05:46:20;98626.84;;;12.95;100.00
19447;BME280;9862;49.462;11.054;2022-10-03T05:48:49;98633.81;;;12.96;100.00
19447;BME280;9862;49.462;11.054;2022-10-03T05:51:34;98644.50;;;12.96;100.00
19447;BME280;9862;49.462;11.054;2022-10-03T05:57:55;98665.66;;;13.04;100.00
19447;BME280;9862;49.462;11.054;2022-10-03T06:00:40;98673.88;;;13.09;100.00
19447;BME280;9862;49.462;11.054;2022-10-03T06:03:44;98678.19;;;13.10;100.00
19447;BME280;9862;49.462;11.054;2022-10-03T06:06:18;98684.16;;;13.12;100.00
19447;BME280;9862;49.462;11.054;2022-10-03T06:09:13;98688.25;;;13.15;100.00
19447;BME280;9862;49.462;11.054;2022-10-03T06:12:05;98705.53;;;13.12;100.00
19447;BME280;9862;49.462;11.054;2022-10-03T06:14:59;98709.63;;;13.22;100.00
19447;BME280;9862;49.462;11.054;2022-10-03T06:17:42;98724.03;;;13.34;100.00
19447;BME280;9862;49.462;11.054;2022-10-03T06:20:30;98741.72;;;13.28;100.00
19447;BME280;9862;49.462;11.054;2022-10-03T06:26:32;98743.56;;;13.01;100.00
19447;BME280;9862;49.462;11.054;2022-10-03T06:35:39;98740.28;;;12.99;100.00
19447;BME280;9862;49.462;11.054;2022-10-03T06:45:03;98739.25;;;13.27;100.00
19447;BME280;9862;49.462;11.054;2022-10-03T06:47:55;98733.25;;;13.38;100.00
19447;BME280;9862;49.462;11.054;2022-10-03T06:50:40;98744.16;;;13.36;100.00
19447;BME280;9862;49.462;11.054;2022-10-03T06:53:56;98757.94;;;13.46;100.00
19447;BME280;9862;49.462;11.054;2022-10-03T06:56:47;98770.28;;;13.34;100.00
19447;BME280;9862;49.462;11.054;2022-10-03T06:59:33;98763.50;;;13.38;100.00
19447;BME280;9862;49.462;11.054;2022-10-03T07:02:49;98761.41;;;13.40;100.00
19447;BME280;9862;49.462;11.054;2022-10-03T07:14:56;98756.06;;;13.47;100.00
19447;BME280;9862;49.462;11.054;2022-10-03T07:17:50;98760.97;;;13.63;100.00
19447;BME280;9862;49.462;11.054;2022-10-03T07:20:40;98770.81;;;13.69;100.00
19447;BME280;9862;49.462;11.054;2022-10-03T07:23:30;98773.75;;;13.48;100.00
19447;BME280;9862;49.462;11.054;2022-10-03T07:26:52;98783.66;;;13.28;100.00
19447;BME280;9862;49.462;11.054;2022-10-03T07:29:26;98771.31;;;13.27;100.00
19447;BME280;9862;49.462;11.054;2022-10-03T07:32:26;98768.00;;;13.38;100.00
19447;BME280;9862;49.462;11.054;2022-10-03T07:38:38;98770.47;;;13.46;100.00
19447;BME280;9862;49.462;11.054;2022-10-03T07:44:37;98763.69;;;13.30;100.00
19447;BME280;9862;49.462;11.054;2022-10-03T07:47:52;98753.63;;;13.39;100.00
19447;BME280;9862;49.462;11.054;2022-10-03T07:50:44;98727.69;;;13.97;100.00
19447;BME280;9862;49.462;11.054;2022-10-03T07:59:43;98701.63;;;16.57;100.00
19447;BME280;9862;49.462;11.054;2022-10-03T08:02:28;98819.03;;;16.09;100.00
19447;BME280;9862;49.462;11.054;2022-10-03T08:05:25;98825.34;;;16.51;100.00
19447;BME280;9862;49.462;11.054;2022-10-03T08:08:37;98802.66;;;17.19;100.00
19447;BME280;9862;49.462;11.054;2022-10-03T08:14:42;98866.44;;;18.12;100.00
19447;BME280;9862;49.462;11.054;2022-10-03T08:17:34;98878.00;;;18.36;100.00
19447;BME280;9862;49.462;11.054;2022-10-03T08:20:27;98883.81;;;18.56;100.00
19447;BME280;9862;49.462;11.054;2022-10-03T08:23:11;98912.06;;;18.53;100.00
19447;BME280;9862;49.462;11.054;2022-10-03T08:25:54;98926.94;;;18.56;100.00
19447;BME280;9862;49.462;11.054;2022-10-03T08:28:43;98956.25;;;17.70;100.00
19447;BME280;9862;49.462;11.054;2022-10-03T08:31:33;98971.56;;;16.43;100.00
19447;BME280;9862;49.462;11.054;2022-10-03T08:34:27;98963.19;;;15.65;100.00
19447;BME280;9862;49.462;11.054;2022-10-03T08:37:30;98962.28;;;15.08;100.00
19447;BME280;9862;49.462;11.054;2022-10-03T08:40:32;98947.13;;;14.88;100.00
19447;BME280;9862;49.462;11.054;2022-10-03T08:43:48;98944.75;;;14.67;100.00
19447;BME280;9862;49.462;11.054;2022-10-03T08:49:39;98936.03;;;14.00;100.00
19447;BME280;9862;49.462;11.054;2022-10-03T08:52:20;98928.63;;;13.96;100.00
19447;BME280;9862;49.462;11.054;2022-10-03T08:58:26;98922.44;;;13.89;100.00
19447;BME280;9862;49.462;11.054;2022-10-03T09:01:19;98918.56;;;13.85;100.00
19447;BME280;9862;49.462;11.054;2022-10-03T09:04:05;98907.84;;;13.85;100.00
19447;BME280;9862;49.462;11.054;2022-10-03T09:06:55;98914.03;;;13.79;100.00
19447;BME280;9862;49.462;11.054;2022-10-03T09:12:34;98915.66;;;13.86;100.00
19447;BME280;9862;49.462;11.054;2022-10-03T09:15:36;98917.94;;;13.56;100.00
19447;BME280;9862;49.462;11.054;2022-10-03T09:18:40;98913.63;;;13.55;100.00
19447;BME280;9862;49.462;11.054;2022-10-03T09:21:44;98917.13;;;13.49;100.00
19447;BME280;9862;49.462;11.054;2022-10-03T09:24:40;98912.38;;;13.25;100.00
19447;BME280;9862;49.462;11.054;2022-10-03T09:27:31;98917.50;;;13.13;100.00
19447;BME280;9862;49.462;11.054;2022-10-03T09:30:24;98916.06;;;13.30;100.00
19447;BME280;9862;49.462;11.054;2022-10-03T09:33:23;98906.84;;;13.53;100.00
19447;BME280;9862;49.462;11.054;2022-10-03T09:36:21;98903.13;;;13.67;100.00
19447;BME280;9862;49.462;11.054;2022-10-03T09:39:01;98921.03;;;13.66;100.00
19447;BME280;9862;49.462;11.054;2022-10-03T09:41:56;98937.09;;;13.66;100.00
19447;BME280;9862;49.462;11.054;2022-10-03T09:45:00;98939.75;;;13.66;100.00
19447;BME280;9862;49.462;11.054;2022-10-03T09:48:06;98945.09;;;13.66;100.00
19447;BME280;9862;49.462;11.054;2022-10-03T09:51:04;98934.59;;;13.78;100.00
19447;BME280;9862;49.462;11.054;2022-10-03T09:57:11;98928.06;;;13.61;100.00
19447;BME280;9862;49.462;11.054;2022-10-03T10:00:02;98926.38;;;13.60;100.00
19447;BME280;9862;49.462;11.054;2022-10-03T10:02:54;98940.16;;;13.57;100.00
19447;BME280;9862;49.462;11.054;2022-10-03T10:08:36;98941.19;;;13.69;100.00
19447;BME280;9862;49.462;11.054;2022-10-03T10:11:13;98938.72;;;13.94;100.00
19447;BME280;9862;49.462;11.054;2022-10-03T10:14:18;98939.53;;;13.94;100.00
19447;BME280;9862;49.462;11.054;2022-10-03T10:20:16;98942.56;;;14.24;100.00
19447;BME280;9862;49.462;11.054;2022-10-03T10:23:12;98945.47;;;14.29;100.00
19447;BME280;9862;49.462;11.054;2022-10-03T10:26:05;98950.19;;;14.27;100.00
19447;BME280;9862;49.462;11.054;2022-10-03T10:29:11;98948.53;;;14.40;100.00
19447;BME280;9862;49.462;11.054;2022-10-03T10:32:17;98953.06;;;14.32;100.00
19447;BME280;9862;49.462;11.054;2022-10-03T10:35:31;98948.50;;;14.53;100.00
19447;BME280;9862;49.462;11.054;2022-10-03T10:38:37;98946.44;;;14.55;100.00
19447;BME280;9862;49.462;11.054;2022-10-03T10:41:49;98961.28;;;14.51;100.00
19447;BME280;9862;49.462;11.054;2022-10-03T10:45:14;98965.81;;;14.44;100.00
19447;BME280;9862;49.462;11.054;2022-10-03T10:54:24;98968.09;;;14.40;100.00
19447;BME280;9862;49.462;11.054;2022-10-03T10:57:39;98970.38;;;14.23;100.00
19447;BME280;9862;49.462;11.054;2022-10-03T11:00:19;98965.25;;;14.28;100.00
19447;BME280;9862;49.462;11.054;2022-10-03T11:06:31;98981.38;;;14.80;100.00
19447;BME280;9862;49.462;11.054;2022-10-03T11:12:46;98981.75;;;14.90;100.00
19447;BME280;9862;49.462;11.054;2022-10-03T11:19:07;98983.31;;;15.04;100.00
19447;BME280;9862;49.462;11.054;2022-10-03T11:22:17;98990.00;;;14.88;100.00
19447;BME280;9862;49.462;11.054;2022-10-03T11:25:44;98983.38;;;14.98;100.00
19447;BME280;9862;49.462;11.054;2022-10-03T11:28:51;98993.50;;;14.89;100.00
19447;BME280;9862;49.462;11.054;2022-10-03T11:35:21;98993.22;;;15.04;100.00
19447;BME280;9862;49.462;11.054;2022-10-03T11:37:59;99015.81;;;14.76;100.00
19447;BME280;9862;49.462;11.054;2022-10-03T11:40:40;98997.47;;;14.80;100.00
19447;BME280;9862;49.462;11.054;2022-10-03T11:43:50;98991.78;;;15.08;100.00
19447;BME280;9862;49.462;11.054;2022-10-03T11:46:46;99005.25;;;15.33;100.00
19447;BME280;9862;49.462;11.054;2022-10-03T11:49:29;99004.66;;;15.24;100.00
19447;BME280;9862;49.462;11.054;2022-10-03T11:52:12;99011.41;;;14.95;100.00
19447;BME280;9862;49.462;11.054;2022-10-03T11:54:45;99007.97;;;14.81;100.00
19447;BME280;9862;49.462;11.054;2022-10-03T11:57:17;99007.00;;;14.69;100.00
19447;BME280;9862;49.462;11.054;2022-10-03T11:59:58;99001.94;;;14.93;100.00
19447;BME280;9862;49.462;11.054;2022-10-03T12:05:33;99004.63;;;14.93;100.00
19447;BME280;9862;49.462;11.054;2022-10-03T12:08:18;99000.22;;;15.05;100.00
19447;BME280;9862;49.462;11.054;2022-10-03T12:11:09;98994.47;;;15.08;100.00
19447;BME280;9862;49.462;11.054;2022-10-03T12:13:45;98990.66;;;15.22;100.00
19447;BME280;9862;49.462;11.054;2022-10-03T12:16:20;98988.44;;;15.12;100.00
19447;BME280;9862;49.462;11.054;2022-10-03T12:18:56;98987.41;;;15.13;100.00
19447;BME280;9862;49.462;11.054;2022-10-03T12:21:37;98986.13;;;15.23;100.00
19447;BME280;9862;49.462;11.054;2022-10-03T12:24:24;98991.84;;;15.33;100.00
19447;BME280;9862;49.462;11.054;2022-10-03T12:26:56;98985.53;;;15.52;100.00
19447;BME280;9862;49.462;11.054;2022-10-03T12:29:27;98986.34;;;15.53;100.00
19447;BME280;9862;49.462;11.054;2022-10-03T12:32:12;98983.84;;;15.64;100.00
19447;BME280;9862;49.462;11.054;2022-10-03T12:34:44;98987.44;;;15.77;100.00
19447;BME280;9862;49.462;11.054;2022-10-03T12:37:54;98979.44;;;15.70;100.00
19447;BME280;9862;49.462;11.054;2022-10-03T12:40:25;98991.09;;;15.82;100.00
19447;BME280;9862;49.462;11.054;2022-10-03T12:43:04;98993.91;;;15.69;100.00
19447;BME280;9862;49.462;11.054;2022-10-03T12:45:39;98982.91;;;15.45;100.00
19447;BME280;9862;49.462;11.054;2022-10-03T12:48:36;98987.03;;;15.41;100.00
19447;BME280;9862;49.462;11.054;2022-10-03T12:51:15;98977.94;;;15.42;100.00
19447;BME280;9862;49.462;11.054;2022-10-03T12:53:52;98980.63;;;15.42;100.00
19447;BME280;9862;49.462;11.054;2022-10-03T12:56:30;98984.41;;;15.35;100.00
19447;BME280;9862;49.462;11.054;2022-10-03T12:59:22;98984.50;;;15.15;100.00
19447;BME280;9862;49.462;11.054;2022-10-03T13:02:20;98985.53;;;15.14;100.00
19447;BME280;9862;49.462;11.054;2022-10-03T13:05:06;98975.59;;;15.28;100.00
19447;BME280;9862;49.462;11.054;2022-10-03T13:07:49;98977.00;;;15.30;100.00
19447;BME280;9862;49.462;11.054;2022-10-03T13:10:27;98966.47;;;15.35;100.00
19447;BME280;9862;49.462;11.054;2022-10-03T13:13:04;98974.63;;;15.47;100.00
19447;BME280;9862;49.462;11.054;2022-10-03T13:15:46;98967.84;;;15.44;100.00
19447;BME280;9862;49.462;11.054;2022-10-03T13:18:28;98966.66;;;15.34;100.00
19447;BME280;9862;49.462;11.054;2022-10-03T13:21:03;98963.59;;;15.30;100.00
19447;BME280;9862;49.462;11.054;2022-10-03T13:23:41;98961.75;;;15.24;100.00
19447;BME280;9862;49.462;11.054;2022-10-03T13:26:15;98962.56;;;15.31;100.00
19447;BME280;9862;49.462;11.054;2022-10-03T13:29:10;98963.72;;;15.42;100.00
19447;BME280;9862;49.462;11.054;2022-10-03T13:31:50;98954.06;;;15.34;100.00
19447;BME280;9862;49.462;11.054;2022-10-03T13:34:22;98962.09;;;15.34;100.00
19447;BME280;9862;49.462;11.054;2022-10-03T13:36:53;98961.09;;;15.35;100.00
19447;BME280;9862;49.462;11.054;2022-10-03T13:39:23;98955.63;;;15.49;100.00
19447;BME280;9862;49.462;11.054;2022-10-03T13:41:59;98947.31;;;15.57;100.00
19447;BME280;9862;49.462;11.054;2022-10-03T13:44:35;98952.06;;;15.61;100.00
19447;BME280;9862;49.462;11.054;2022-10-03T13:47:15;98959.69;;;15.58;100.00
19447;BME280;9862;49.462;11.054;2022-10-03T13:49:50;98950.88;;;15.51;100.00
19447;BME280;9862;49.462;11.054;2022-10-03T13:52:24;98950.81;;;15.64;100.00
19447;BME280;9862;49.462;11.054;2022-10-03T13:55:10;98952.38;;;15.71;100.00
19447;BME280;9862;49.462;11.054;2022-10-03T13:57:44;98953.69;;;15.62;100.00
19447;BME280;9862;49.462;11.054;2022-10-03T14:00:15;98958.16;;;15.75;100.00
19447;BME280;9862;49.462;11.054;2022-10-03T14:06:04;98953.97;;;15.79;100.00
19447;BME280;9862;49.462;11.054;2022-10-03T14:11:37;98954.03;;;15.72;100.00
19447;BME280;9862;49.462;11.054;2022-10-03T14:14:30;98957.25;;;15.81;100.00
19447;BME280;9862;49.462;11.054;2022-10-03T14:17:05;98947.41;;;15.75;100.00
19447;BME280;9862;49.462;11.054;2022-10-03T14:19:39;98957.38;;;15.68;100.00
19447;BME280;9862;49.462;11.054;2022-10-03T14:22:23;98957.00;;;15.58;100.00
19447;BME280;9862;49.462;11.054;2022-10-03T14:25:01;98948.03;;;15.45;100.00
19447;BME280;9862;49.462;11.054;2022-10-03T14:27:46;98955.44;;;15.43;100.00
19447;BME280;9862;49.462;11.054;2022-10-03T14:30:16;98950.19;;;15.30;100.00
19447;BME280;9862;49.462;11.054;2022-10-03T14:32:57;98957.69;;;15.15;100.00
19447;BME280;9862;49.462;11.054;2022-10-03T14:35:32;98946.78;;;15.16;100.00
19447;BME280;9862;49.462;11.054;2022-10-03T14:38:14;98946.13;;;15.21;100.00
19447;BME280;9862;49.462;11.054;2022-10-03T14:40:48;98950.63;;;15.27;100.00
19447;BME280;9862;49.462;11.054;2022-10-03T14:43:27;98948.78;;;15.21;100.00
19447;BME280;9862;49.462;11.054;2022-10-03T14:45:57;98947.50;;;15.30;100.00
19447;BME280;9862;49.462;11.054;2022-10-03T14:48:28;98943.16;;;15.36;100.00
19447;BME280;9862;49.462;11.054;2022-10-03T14:51:02;98951.91;;;15.50;100.00
19447;BME280;9862;49.462;11.054;2022-10-03T14:53:34;98951.91;;;15.50;100.00
19447;BME280;9862;49.462;11.054;2022-10-03T14:56:07;98950.00;;;15.57;100.00
19447;BME280;9862;49.462;11.054;2022-10-03T14:58:37;98941.53;;;16.28;100.00
19447;BME280;9862;49.462;11.054;2022-10-03T15:01:12;98941.78;;;17.11;100.00
19447;BME280;9862;49.462;11.054;2022-10-03T15:03:52;98940.81;;;18.01;100.00
19447;BME280;9862;49.462;11.054;2022-10-03T15:06:35;98929.31;;;19.21;100.00
19447;BME280;9862;49.462;11.054;2022-10-03T15:09:17;98936.13;;;18.95;100.00
19447;BME280;9862;49.462;11.054;2022-10-03T15:11:52;98934.84;;;18.34;100.00
19447;BME280;9862;49.462;11.054;2022-10-03T15:14:24;98931.41;;;17.68;100.00
19447;BME280;9862;49.462;11.054;2022-10-03T15:16:54;98936.88;;;17.08;100.00
19447;BME280;9862;49.462;11.054;2022-10-03T15:19:25;98933.00;;;16.68;100.00
19447;BME280;9862;49.462;11.054;2022-10-03T15:22:06;98934.31;;;16.47;100.00
19447;BME280;9862;49.462;11.054;2022-10-03T15:24:38;98933.34;;;16.23;100.00
19447;BME280;9862;49.462;11.054;2022-10-03T15:27:12;98939.09;;;16.01;100.00
19447;BME280;9862;49.462;11.054;2022-10-03T15:29:44;98938.66;;;15.86;100.00
19447;BME280;9862;49.462;11.054;2022-10-03T15:32:19;98934.97;;;15.81;100.00
19447;BME280;9862;49.462;11.054;2022-10-03T15:34:51;98933.03;;;15.63;100.00
19447;BME280;9862;49.462;11.054;2022-10-03T15:37:20;98937.63;;;15.56;100.00
19447;BME280;9862;49.462;11.054;2022-10-03T15:39:50;98929.63;;;15.49;100.00
19447;BME280;9862;49.462;11.054;2022-10-03T15:42:23;98942.31;;;15.35;100.00
19447;BME280;9862;49.462;11.054;2022-10-03T15:44:57;98943.22;;;15.54;100.00
19447;BME280;9862;49.462;11.054;2022-10-03T15:47:27;98932.31;;;15.49;100.00
19447;BME280;9862;49.462;11.054;2022-10-03T15:49:58;98936.47;;;15.45;100.00
19447;BME280;9862;49.462;11.054;2022-10-03T15:52:32;98936.34;;;15.33;100.00
19447;BME280;9862;49.462;11.054;2022-10-03T15:55:02;98936.50;;;15.38;100.00
19447;BME280;9862;49.462;11.054;2022-10-03T15:57:34;98941.88;;;15.38;100.00
19447;BME280;9862;49.462;11.054;2022-10-03T16:00:04;98937.97;;;15.34;100.00
19447;BME280;9862;49.462;11.054;2022-10-03T16:02:34;98932.41;;;15.36;100.00
19447;BME280;9862;49.462;11.054;2022-10-03T16:05:04;98932.91;;;15.26;100.00
19447;BME280;9862;49.462;11.054;2022-10-03T16:07:40;98925.50;;;15.15;100.00
19447;BME280;9862;49.462;11.054;2022-10-03T16:10:17;98933.56;;;15.15;100.00
19447;BME280;9862;49.462;11.054;2022-10-03T16:12:56;98929.72;;;15.04;100.00
19447;BME280;9862;49.462;11.054;2022-10-03T16:15:31;98929.06;;;15.09;100.00
19447;BME280;9862;49.462;11.054;2022-10-03T16:18:05;98932.56;;;15.09;100.00
19447;BME280;9862;49.462;11.054;2022-10-03T16:20:37;98933.19;;;15.11;100.00